createdAt,value
2018-06-15T00:01:04.811Z,8.30
2018-06-15T00:03:33.865Z,7.83
2018-06-15T00:06:02.959Z,8.23
2018-06-15T00:08:31.789Z,8.00
2018-06-15T00:11:00.770Z,7.50
2018-06-15T00:13:29.969Z,8.70
2018-06-15T00:15:59.223Z,8.57
2018-06-15T00:18:28.332Z,8.97
2018-06-15T00:20:57.441Z,9.07
2018-06-15T00:23:26.761Z,8.47
2018-06-15T00:25:55.805Z,8.40
2018-06-15T00:28:24.885Z,8.47
2018-06-15T00:30:55.411Z,8.83
2018-06-15T00:33:24.445Z,8.20
2018-06-15T00:35:53.543Z,9.30
2018-06-15T00:38:22.845Z,9.30
2018-06-15T00:40:51.988Z,10.17
2018-06-15T00:43:21.031Z,8.70
2018-06-15T00:45:50.258Z,8.63
2018-06-15T00:48:19.387Z,8.73
2018-06-15T00:50:48.574Z,9.30
2018-06-15T00:53:18.427Z,9.07
2018-06-15T00:55:48.063Z,8.57
2018-06-15T00:58:17.303Z,9.30
2018-06-15T01:00:46.408Z,8.47
2018-06-15T01:03:15.356Z,7.90
2018-06-15T01:05:44.499Z,7.87
2018-06-15T01:08:13.867Z,8.70
2018-06-15T01:10:43.015Z,8.90
2018-06-15T01:13:12.088Z,8.63
2018-06-15T01:15:41.203Z,8.23
2018-06-15T01:18:10.415Z,9.57
2018-06-15T01:20:39.534Z,9.07
2018-06-15T01:23:09.048Z,9.07
2018-06-15T01:25:38.087Z,8.60
2018-06-15T01:28:07.172Z,8.43
2018-06-15T01:30:36.743Z,10.07
2018-06-15T01:33:06.409Z,8.40
2018-06-15T01:35:35.599Z,9.20
2018-06-15T01:38:04.759Z,9.50
2018-06-15T01:40:33.983Z,9.30
2018-06-15T01:43:04.330Z,9.00
2018-06-15T01:45:33.433Z,9.20
2018-06-15T01:48:02.349Z,10.50
2018-06-15T01:50:31.383Z,9.70
2018-06-15T01:53:00.423Z,9.17
2018-06-15T01:55:29.987Z,9.60
2018-06-15T01:57:59.444Z,9.23
2018-06-15T02:00:28.509Z,9.83
2018-06-15T02:02:57.937Z,9.57
2018-06-15T02:05:27.191Z,10.03
2018-06-15T02:07:56.447Z,9.93
2018-06-15T02:10:25.790Z,9.20
2018-06-15T02:12:54.857Z,9.43
2018-06-15T02:15:24.021Z,9.67
2018-06-15T02:17:53.316Z,9.30
2018-06-15T02:20:22.403Z,10.03
2018-06-15T02:22:51.494Z,10.20
2018-06-15T02:25:20.943Z,10.10
2018-06-15T02:27:50.143Z,10.10
2018-06-15T02:30:20.008Z,10.13
2018-06-15T02:32:49.245Z,10.10
2018-06-15T02:35:18.400Z,9.07
2018-06-15T02:37:48.067Z,9.73
2018-06-15T02:40:17.603Z,11.30
2018-06-15T02:42:46.713Z,9.70
2018-06-15T02:45:15.537Z,9.67
2018-06-15T02:47:44.559Z,10.23
2018-06-15T02:50:14.297Z,9.90
2018-06-15T02:52:43.337Z,10.60
2018-06-15T02:55:12.985Z,9.93
2018-06-15T02:57:42.106Z,10.10
2018-06-15T03:00:11.645Z,9.60
2018-06-15T03:02:41.155Z,10.00
2018-06-15T03:05:10.894Z,9.20
2018-06-15T03:07:39.951Z,9.87
2018-06-15T03:10:09.072Z,9.60
2018-06-15T03:12:38.238Z,10.00
2018-06-15T03:15:07.700Z,10.17
2018-06-15T03:17:37.236Z,9.47
2018-06-15T03:20:06.342Z,10.63
2018-06-15T03:22:35.405Z,9.80
2018-06-15T03:25:04.818Z,10.67
2018-06-15T03:27:33.518Z,10.13
2018-06-15T03:30:03.201Z,9.37
2018-06-15T03:32:32.753Z,10.50
2018-06-15T03:35:01.972Z,10.57
2018-06-15T03:37:31.194Z,10.33
2018-06-15T03:40:00.938Z,10.10
2018-06-15T03:42:29.983Z,10.30
2018-06-15T03:44:59.122Z,10.30
2018-06-15T03:47:28.406Z,9.90
2018-06-15T03:49:57.244Z,9.60
2018-06-15T03:52:26.215Z,10.60
2018-06-15T03:54:55.789Z,9.77
2018-06-15T03:57:25.073Z,10.77
2018-06-15T03:59:53.840Z,11.10
2018-06-15T04:02:24.021Z,10.37
2018-06-15T04:04:53.076Z,10.23
2018-06-15T04:07:22.138Z,10.10
2018-06-15T04:09:51.600Z,10.67
2018-06-15T04:12:20.707Z,10.57
2018-06-15T04:14:49.790Z,10.33
2018-06-15T04:17:19.125Z,10.90
2018-06-15T04:19:48.211Z,11.17
2018-06-15T04:22:17.092Z,11.07
2018-06-15T04:24:46.188Z,10.93
2018-06-15T04:27:15.276Z,10.37
2018-06-15T04:29:44.389Z,10.70
2018-06-15T04:32:13.769Z,11.47
2018-06-15T04:34:42.483Z,10.80
2018-06-15T04:37:12.783Z,10.90
2018-06-15T04:39:41.981Z,11.60
2018-06-15T04:42:10.827Z,11.30
2018-06-15T04:44:39.897Z,11.57
2018-06-15T04:47:09.371Z,11.30
2018-06-15T04:49:38.912Z,12.00
2018-06-15T04:52:08.037Z,11.63
2018-06-15T04:54:37.341Z,12.73
2018-06-15T04:57:06.513Z,11.50
2018-06-15T04:59:35.550Z,12.30
2018-06-15T05:02:04.827Z,11.93
2018-06-15T05:04:34.195Z,12.30
2018-06-15T05:07:03.397Z,11.90
2018-06-15T05:09:33.574Z,12.40
2018-06-15T05:12:03.633Z,11.83
2018-06-15T05:14:32.933Z,12.40
2018-06-15T05:17:02.019Z,13.10
2018-06-15T05:19:31.343Z,12.20
2018-06-15T05:22:00.417Z,13.27
2018-06-15T05:24:29.671Z,12.70
2018-06-15T05:26:59.194Z,11.90
2018-06-15T05:29:28.321Z,12.30
2018-06-15T05:31:57.663Z,12.70
2018-06-15T05:34:27.129Z,12.07
2018-06-15T05:36:56.308Z,11.00
2018-06-15T05:39:25.550Z,10.90
2018-06-15T05:41:55.173Z,10.97
2018-06-15T05:44:24.364Z,12.40
2018-06-15T05:46:53.544Z,12.57
2018-06-15T05:49:22.866Z,11.47
2018-06-15T05:51:51.985Z,11.70
2018-06-15T05:54:21.982Z,12.13
2018-06-15T05:56:51.098Z,10.80
2018-06-15T05:59:20.316Z,12.80
2018-06-15T06:01:50.172Z,12.80
2018-06-15T06:04:19.364Z,12.80
2018-06-15T06:06:49.018Z,12.97
2018-06-15T06:09:18.102Z,12.23
2018-06-15T06:11:47.295Z,12.90
2018-06-15T06:14:16.144Z,13.10
2018-06-15T06:16:45.178Z,11.57
2018-06-15T06:19:14.526Z,12.40
2018-06-15T06:21:43.667Z,11.83
2018-06-15T06:24:12.840Z,12.10
2018-06-15T06:26:42.053Z,12.07
2018-06-15T06:29:17.623Z,11.83
2018-06-15T06:31:46.998Z,12.60
2018-06-15T06:34:16.163Z,12.30
2018-06-15T06:36:45.284Z,11.87
2018-06-15T06:39:14.712Z,11.47
2018-06-15T06:41:44.019Z,11.77
2018-06-15T06:44:13.139Z,12.00
2018-06-15T06:46:42.664Z,11.67
2018-06-15T06:49:11.847Z,11.60
2018-06-15T06:51:40.986Z,12.17
2018-06-15T06:54:10.313Z,11.33
2018-06-15T06:56:39.072Z,11.33
2018-06-15T06:59:07.843Z,11.13
2018-06-15T07:01:37.195Z,10.63
2018-06-15T07:04:06.320Z,10.63
2018-06-15T07:06:35.477Z,9.60
2018-06-15T07:09:09.033Z,9.70
2018-06-15T07:14:29.412Z,9.43
2018-06-15T07:16:59.796Z,10.37
2018-06-15T07:19:28.867Z,10.53
2018-06-15T07:21:58.030Z,11.17
2018-06-15T07:24:27.214Z,9.60
2018-06-15T07:26:56.490Z,9.50
2018-06-15T07:29:25.890Z,10.27
2018-06-15T07:31:54.975Z,10.83
2018-06-15T07:34:23.828Z,9.90
2018-06-15T07:36:52.991Z,10.90
2018-06-15T07:39:22.262Z,11.67
2018-06-15T07:41:51.309Z,10.50
2018-06-15T07:44:20.799Z,10.70
2018-06-15T07:46:50.002Z,10.40
2018-06-15T07:49:19.155Z,10.50
2018-06-15T07:51:48.414Z,11.30
2018-06-15T07:54:17.612Z,10.10
2018-06-15T07:56:47.357Z,10.17
2018-06-15T07:59:16.654Z,9.83
2018-06-15T08:01:46.422Z,10.27
2018-06-15T08:04:15.628Z,9.83
2018-06-15T08:06:45.212Z,10.87
2018-06-15T08:09:14.248Z,10.43
2018-06-15T08:11:43.404Z,9.77
2018-06-15T08:14:13.309Z,9.30
2018-06-15T08:16:43.192Z,9.70
2018-06-15T08:19:13.007Z,10.03
2018-06-15T08:21:42.546Z,9.70
2018-06-15T08:24:11.269Z,8.70
2018-06-15T08:26:40.996Z,8.80
2018-06-15T08:29:10.556Z,8.27
2018-06-15T08:31:39.752Z,9.53
2018-06-15T08:34:08.992Z,9.40
2018-06-15T08:36:38.259Z,9.03
2018-06-15T08:39:09.888Z,8.90
2018-06-15T08:41:39.268Z,9.17
2018-06-15T08:44:08.939Z,9.10
2018-06-15T08:46:38.492Z,8.53
2018-06-15T08:49:08.199Z,8.83
2018-06-15T08:51:37.419Z,8.03
2018-06-15T08:54:06.640Z,8.63
2018-06-15T08:56:36.029Z,9.60
2018-06-15T08:59:05.129Z,9.70
2018-06-15T09:01:34.941Z,9.03
2018-06-15T09:04:04.347Z,9.97
2018-06-15T09:06:33.406Z,9.77
2018-06-15T09:09:02.637Z,9.10
2018-06-15T09:11:34.547Z,8.67
2018-06-15T09:14:03.632Z,9.37
2018-06-15T09:16:32.795Z,8.83
2018-06-15T09:19:02.173Z,9.20
2018-06-15T09:21:31.253Z,8.73
2018-06-15T09:24:00.313Z,8.40
2018-06-15T09:26:29.525Z,8.90
2018-06-15T09:28:58.705Z,8.23
2018-06-15T09:31:27.853Z,8.70
2018-06-15T09:33:57.009Z,9.07
2018-06-15T09:36:26.021Z,7.87
2018-06-15T09:38:55.238Z,7.50
2018-06-15T09:41:24.791Z,7.67
2018-06-15T09:43:54.185Z,8.33
2018-06-15T09:46:23.305Z,7.27
2018-06-15T09:48:52.563Z,7.50
2018-06-15T09:51:21.691Z,7.70
2018-06-15T09:53:50.870Z,8.93
2018-06-15T09:56:20.163Z,7.40
2018-06-15T09:58:53.241Z,7.60
2018-06-15T10:01:22.473Z,6.80
2018-06-15T10:03:51.711Z,5.83
2018-06-15T10:06:21.025Z,6.70
2018-06-15T10:08:50.134Z,6.90
2018-06-15T10:11:19.289Z,7.60
2018-06-15T10:13:49.038Z,6.83
2018-06-15T10:16:18.074Z,8.13
2018-06-15T10:18:47.224Z,6.93
2018-06-15T10:21:16.536Z,6.80
2018-06-15T10:23:45.632Z,6.40
2018-06-15T10:26:14.730Z,5.67
2018-06-15T10:28:44.133Z,5.90
2018-06-15T10:31:13.239Z,5.53
2018-06-15T10:33:42.294Z,5.70
2018-06-15T10:36:11.538Z,6.10
2018-06-15T10:38:40.724Z,6.20
2018-06-15T10:41:10.372Z,5.83
2018-06-15T10:43:39.953Z,5.40
2018-06-15T10:46:09.036Z,5.50
2018-06-15T10:48:38.771Z,6.40
2018-06-15T10:51:07.940Z,5.53
2018-06-15T10:53:37.032Z,5.50
2018-06-15T10:56:06.296Z,5.27
2018-06-15T10:58:35.747Z,5.30
2018-06-15T11:01:04.895Z,5.80
2018-06-15T11:03:33.949Z,5.13
2018-06-15T11:06:03.326Z,5.07
2018-06-15T11:08:32.375Z,5.50
2018-06-15T11:11:01.562Z,5.10
2018-06-15T11:13:30.932Z,4.37
2018-06-15T11:16:00.446Z,4.20
2018-06-15T11:18:29.534Z,4.80
2018-06-15T11:20:59.112Z,4.13
2018-06-15T11:23:28.282Z,4.00
2018-06-15T11:25:58.101Z,4.30
2018-06-15T11:28:27.125Z,4.50
2018-06-15T11:30:56.224Z,4.40
2018-06-15T11:33:25.234Z,3.90
2018-06-15T11:35:54.761Z,4.07
2018-06-15T11:38:23.931Z,3.77
2018-06-15T11:40:53.150Z,4.00
2018-06-15T11:43:22.565Z,3.83
2018-06-15T11:45:51.844Z,4.63
2018-06-15T11:48:20.908Z,4.07
2018-06-15T11:50:50.415Z,4.30
2018-06-15T11:53:19.567Z,4.07
2018-06-15T11:55:48.762Z,3.43
2018-06-15T11:58:18.358Z,3.90
2018-06-15T12:00:47.521Z,4.03
2018-06-15T12:03:17.434Z,3.40
2018-06-15T12:05:46.888Z,3.23
2018-06-15T12:08:15.981Z,3.70
2018-06-15T12:10:45.110Z,3.87
2018-06-15T12:13:14.784Z,3.57
2018-06-15T12:15:43.890Z,3.67
2018-06-15T12:18:13.242Z,3.67
2018-06-15T12:20:42.624Z,4.10
2018-06-15T12:23:11.846Z,3.80
2018-06-15T12:25:41.066Z,3.50
2018-06-15T12:28:10.534Z,3.27
2018-06-15T12:30:39.584Z,3.60
2018-06-15T12:33:08.721Z,3.50
2018-06-15T12:35:37.978Z,3.60
2018-06-15T12:38:08.506Z,3.80
2018-06-15T12:40:37.913Z,3.87
2018-06-15T12:43:07.206Z,4.03
2018-06-15T12:45:36.334Z,3.57
2018-06-15T12:48:05.758Z,3.90
2018-06-15T12:50:34.914Z,3.87
2018-06-15T12:53:03.672Z,4.30
2018-06-15T12:55:32.953Z,3.80
2018-06-15T12:58:02.577Z,3.40
2018-06-15T13:00:31.729Z,3.70
2018-06-15T13:03:01.078Z,3.67
2018-06-15T13:05:30.219Z,3.53
2018-06-15T13:07:58.946Z,3.57
2018-06-15T13:10:28.340Z,3.40
2018-06-15T13:12:57.478Z,3.20
2018-06-15T13:15:26.558Z,3.70
2018-06-15T13:17:55.936Z,3.37
2018-06-15T13:20:25.433Z,3.17
2018-06-15T13:22:54.484Z,3.50
2018-06-15T13:25:24.552Z,3.60
2018-06-15T13:27:53.608Z,3.67
2018-06-15T13:30:22.774Z,3.57
2018-06-15T13:32:52.069Z,3.33
2018-06-15T13:35:21.168Z,3.33
2018-06-15T13:37:50.291Z,3.03
2018-06-15T13:40:19.652Z,2.93
2018-06-15T13:42:49.100Z,2.70
2018-06-15T13:45:18.168Z,2.50
2018-06-15T13:47:47.672Z,3.10
2018-06-15T13:50:16.766Z,2.80
2018-06-15T13:52:45.931Z,2.80
2018-06-15T13:55:16.186Z,3.17
2018-06-15T13:57:45.346Z,3.20
2018-06-15T14:00:14.456Z,2.90
2018-06-15T14:02:44.246Z,3.13
2018-06-15T14:05:13.348Z,3.17
2018-06-15T14:07:42.402Z,2.87
2018-06-15T14:10:11.320Z,2.83
2018-06-15T14:12:40.410Z,2.70
2018-06-15T14:15:09.575Z,2.87
2018-06-15T14:17:38.740Z,3.07
2018-06-15T14:20:07.788Z,3.00
2018-06-15T14:22:37.188Z,3.20
2018-06-15T14:25:06.774Z,3.63
2018-06-15T14:27:35.838Z,3.00
2018-06-15T14:30:05.232Z,2.87
2018-06-15T14:32:34.614Z,3.27
2018-06-15T14:35:03.817Z,3.47
2018-06-15T14:37:32.931Z,2.70
2018-06-15T14:40:02.564Z,3.10
2018-06-15T14:42:31.796Z,3.70
2018-06-15T14:45:00.898Z,3.07
2018-06-15T14:47:30.861Z,2.97
2018-06-15T14:50:00.001Z,3.10
2018-06-15T14:52:29.711Z,2.50
2018-06-15T14:54:59.248Z,3.07
2018-06-15T14:57:28.370Z,3.10
2018-06-15T14:59:57.570Z,3.10
2018-06-15T15:02:26.874Z,2.70
2018-06-15T15:04:56.030Z,3.10
2018-06-15T15:07:25.266Z,2.83
2018-06-15T15:09:54.753Z,3.10
2018-06-15T15:12:23.852Z,3.07
2018-06-15T15:14:53.003Z,2.90
2018-06-15T15:17:22.283Z,2.73
2018-06-15T15:19:51.387Z,3.10
2018-06-15T15:22:20.553Z,3.40
2018-06-15T15:24:50.484Z,2.73
2018-06-15T15:27:19.641Z,2.80
2018-06-15T15:29:48.760Z,3.23
2018-06-15T15:32:18.114Z,2.93
2018-06-15T15:34:47.811Z,2.87
2018-06-15T15:37:16.883Z,3.33
2018-06-15T15:39:46.318Z,3.10
2018-06-15T15:42:15.370Z,2.80
2018-06-15T15:44:44.516Z,2.73
2018-06-15T15:47:13.749Z,3.10
2018-06-15T15:49:42.966Z,3.00
2018-06-15T15:52:12.129Z,2.83
2018-06-15T15:54:41.493Z,3.07
2018-06-15T15:57:10.625Z,2.97
2018-06-15T15:59:39.940Z,2.80
2018-06-15T16:02:09.082Z,3.30
2018-06-15T16:04:38.804Z,3.03
2018-06-15T16:07:07.877Z,2.57
2018-06-15T16:09:36.794Z,2.70
2018-06-15T16:12:06.292Z,3.00
2018-06-15T16:14:35.382Z,2.57
2018-06-15T16:17:05.519Z,3.00
2018-06-15T16:19:34.575Z,3.27
2018-06-15T16:22:03.334Z,3.10
2018-06-15T16:24:32.528Z,2.73
2018-06-15T16:27:02.013Z,2.93
2018-06-15T16:29:31.043Z,2.97
2018-06-15T16:32:00.373Z,2.80
2018-06-15T16:34:29.513Z,2.83
2018-06-15T16:36:58.616Z,2.60
2018-06-15T16:39:27.754Z,3.20
2018-06-15T16:41:56.519Z,2.93
2018-06-15T16:44:25.238Z,3.00
2018-06-15T16:46:54.690Z,3.30
2018-06-15T16:49:23.820Z,2.90
2018-06-15T16:51:52.582Z,2.80
2018-06-15T16:54:21.718Z,2.90
2018-06-15T16:56:50.472Z,2.60
2018-06-15T16:59:19.096Z,3.40
2018-06-15T17:01:48.332Z,3.00
2018-06-15T17:04:17.512Z,3.30
2018-06-15T17:06:46.707Z,2.83
2018-06-15T17:09:15.843Z,3.60
2018-06-15T17:11:44.920Z,3.20
2018-06-15T17:14:13.986Z,3.40
2018-06-15T17:16:43.482Z,3.10
2018-06-15T17:19:12.538Z,3.13
2018-06-15T17:21:41.873Z,2.87
2018-06-15T17:24:11.363Z,2.87
2018-06-15T17:26:40.558Z,3.17
2018-06-15T17:29:09.846Z,2.90
2018-06-15T17:31:39.274Z,3.30
2018-06-15T17:34:08.348Z,2.70
2018-06-15T17:36:41.605Z,3.00
2018-06-15T17:39:11.788Z,3.23
2018-06-15T17:41:41.069Z,3.03
2018-06-15T17:44:10.185Z,3.10
2018-06-15T17:46:39.727Z,3.07
2018-06-15T17:49:09.444Z,3.10
2018-06-15T17:51:38.620Z,3.57
2018-06-15T17:54:08.033Z,3.10
2018-06-15T17:56:37.159Z,3.13
2018-06-15T17:59:06.489Z,3.07
2018-06-15T18:01:35.874Z,3.40
2018-06-15T18:04:04.623Z,4.70
2018-06-15T18:06:33.692Z,63.20
2018-06-15T18:09:03.303Z,58.73
2018-06-15T18:11:32.392Z,28.50
2018-06-15T18:14:01.573Z,12.80
2018-06-15T18:16:30.975Z,5.07
2018-06-15T18:19:00.071Z,4.73
2018-06-15T18:21:28.855Z,41.90
2018-06-15T18:23:58.470Z,77.57
2018-06-15T18:26:27.633Z,59.27
2018-06-15T18:28:56.403Z,21.00
2018-06-15T18:31:26.071Z,9.33
2018-06-15T18:33:55.290Z,4.93
2018-06-15T18:36:24.516Z,3.53
2018-06-15T18:38:53.808Z,3.60
2018-06-15T18:41:22.945Z,3.30
2018-06-15T18:43:52.169Z,3.60
2018-06-15T18:46:21.655Z,4.10
2018-06-15T18:48:50.831Z,3.70
2018-06-15T18:51:19.909Z,3.40
2018-06-15T18:53:49.243Z,3.57
2018-06-15T18:56:18.407Z,3.83
2018-06-15T18:58:47.513Z,3.90
2018-06-15T19:01:16.827Z,4.07
2018-06-15T19:03:46.015Z,3.67
2018-06-15T19:06:15.127Z,3.90
2018-06-15T19:08:44.311Z,3.50
2018-06-15T19:11:14.371Z,4.07
2018-06-15T19:13:43.513Z,4.60
2018-06-15T19:16:13.129Z,3.83
2018-06-15T19:18:42.233Z,4.27
2018-06-15T19:21:11.475Z,4.10
2018-06-15T19:23:40.826Z,3.80
2018-06-15T19:26:09.929Z,3.90
2018-06-15T19:28:38.781Z,4.10
2018-06-15T19:31:07.852Z,4.37
2018-06-15T19:33:37.342Z,4.40
2018-06-15T19:36:06.429Z,4.70
2018-06-15T19:38:36.158Z,4.57
2018-06-15T19:41:05.302Z,4.30
2018-06-15T19:43:34.413Z,3.70
2018-06-15T19:46:04.355Z,4.30
2018-06-15T19:48:33.465Z,4.50
2018-06-15T19:51:02.710Z,3.93
2018-06-15T19:53:31.923Z,4.43
2018-06-15T19:56:00.985Z,4.10
2018-06-15T19:58:30.073Z,4.00
2018-06-15T20:01:00.110Z,4.30
2018-06-15T20:03:29.233Z,4.10
2018-06-15T20:05:58.333Z,4.27
2018-06-15T20:08:27.465Z,4.30
2018-06-15T20:10:56.611Z,4.40
2018-06-15T20:13:25.729Z,4.27
2018-06-15T20:15:55.328Z,4.30
2018-06-15T20:18:25.128Z,4.53
2018-06-15T20:20:54.199Z,4.47
2018-06-15T20:23:23.385Z,4.40
2018-06-15T20:25:53.001Z,4.57
2018-06-15T20:28:22.057Z,4.90
2018-06-15T20:30:51.259Z,5.23
2018-06-15T20:33:20.368Z,4.67
2018-06-15T20:35:49.630Z,4.30
2018-06-15T20:38:18.963Z,4.57
2018-06-15T20:40:48.086Z,4.50
2018-06-15T20:43:17.135Z,4.40
2018-06-15T20:45:46.279Z,4.10
2018-06-15T20:48:15.069Z,4.73
2018-06-15T20:50:43.773Z,4.40
2018-06-15T20:53:13.308Z,4.80
2018-06-15T20:55:42.081Z,4.87
2018-06-15T20:58:11.099Z,4.80
2018-06-15T21:00:40.299Z,4.30
2018-06-15T21:03:09.328Z,5.00
2018-06-15T21:05:38.451Z,4.40
2018-06-15T21:08:07.578Z,4.87
2018-06-15T21:10:37.127Z,4.60
2018-06-15T21:13:06.430Z,5.00
2018-06-15T21:15:35.682Z,5.10
2018-06-15T21:18:04.853Z,4.97
2018-06-15T21:20:33.937Z,5.50
2018-06-15T21:23:03.258Z,6.43
2018-06-15T21:25:32.512Z,7.10
2018-06-15T21:28:01.713Z,6.67
2018-06-15T21:30:30.887Z,6.30
2018-06-15T21:33:00.107Z,6.30
2018-06-15T21:35:29.477Z,5.73
2018-06-15T21:37:58.841Z,5.20
2018-06-15T21:40:27.833Z,5.80
2018-06-15T21:42:56.845Z,5.50
2018-06-15T21:45:25.899Z,5.50
2018-06-15T21:47:55.410Z,5.30
2018-06-15T21:50:24.342Z,6.37
2018-06-15T21:52:53.287Z,7.07
2018-06-15T21:55:22.937Z,6.30
2018-06-15T21:57:52.005Z,5.97
2018-06-15T22:00:20.779Z,6.20
2018-06-15T22:02:49.873Z,5.67
2018-06-15T22:05:19.073Z,5.77
2018-06-15T22:07:48.224Z,6.17
2018-06-15T22:10:17.637Z,5.90
2018-06-15T22:12:46.731Z,6.23
2018-06-15T22:15:15.873Z,6.30
2018-06-15T22:17:45.402Z,6.57
2018-06-15T22:20:14.420Z,5.80
2018-06-15T22:22:43.224Z,6.77
2018-06-15T22:25:12.736Z,6.40
2018-06-15T22:27:41.864Z,6.17
2018-06-15T22:30:10.936Z,6.77
2018-06-15T22:32:40.298Z,6.03
2018-06-15T22:35:09.351Z,6.00
2018-06-15T22:37:38.476Z,6.70
2018-06-15T22:40:08.390Z,6.10
2018-06-15T22:42:37.487Z,7.10
2018-06-15T22:45:06.566Z,7.43
2018-06-15T22:47:35.850Z,6.70
2018-06-15T22:50:04.636Z,7.47
2018-06-15T22:52:33.612Z,6.57
2018-06-15T22:55:03.057Z,8.03
2018-06-15T22:57:32.151Z,8.70
2018-06-15T23:00:01.197Z,8.90
2018-06-15T23:02:30.605Z,9.67
2018-06-15T23:04:59.691Z,8.63
2018-06-15T23:07:28.793Z,9.53
2018-06-15T23:09:58.842Z,9.20
2018-06-15T23:12:27.917Z,9.10
2018-06-15T23:14:56.601Z,9.33
2018-06-15T23:17:25.801Z,8.50
2018-06-15T23:19:54.893Z,8.57
2018-06-15T23:22:23.761Z,8.60
2018-06-15T23:24:52.861Z,8.60
2018-06-15T23:27:21.935Z,9.20
2018-06-15T23:29:51.070Z,9.90
2018-06-15T23:32:20.223Z,9.10
2018-06-15T23:34:49.262Z,9.30
2018-06-15T23:37:18.301Z,9.03
2018-06-15T23:39:47.478Z,8.13
2018-06-15T23:42:16.889Z,7.87
2018-06-15T23:44:46.217Z,8.57
2018-06-15T23:47:15.566Z,8.40
2018-06-15T23:49:44.647Z,8.10
2018-06-15T23:52:13.378Z,8.50
2018-06-15T23:54:42.699Z,9.60
2018-06-15T23:57:11.785Z,8.57
2018-06-15T23:59:40.868Z,8.20
